Terminal Aerodrome Forecast
Issued by NWS

Home | Current Version | Previous Version | Graphics & Text | Print | Product List | Glossary On
Versions: 1 2 3 4 5 6 7 8 9 10 11 12 13 14 15 16 17 18
000
FTUS42 KMHX 211100 RRA
TAFOAJ
TAF
KOAJ 211142Z 2112/2212 VRB03KT P6SM VCSH SCT020 BKN120
      TEMPO 2112/2113 4SM BR
     FM211500 10006KT P6SM VCTS SCT030CB BKN100
     FM220000 10003KT P6SM SCT025 BKN080
     FM220600 VRB02KT 3SM BR SCT007 BKN150
      AMD LTD TO CLD VIS AND WIND=

USA.gov is the U.S. government's official web portal to all federal, state and local government web resources and services.